sensor_id;sensor_type;location;lat;lon;timestamp;P1;durP1;ratioP1;P2;durP2;ratioP2
66559;SDS011;53413;49.878;8.142;2024-03-17T00:00:19;7.70;;;3.28;;
66559;SDS011;53413;49.878;8.142;2024-03-17T00:02:45;9.68;;;3.20;;
66559;SDS011;53413;49.878;8.142;2024-03-17T00:05:11;9.20;;;3.42;;
66559;SDS011;53413;49.878;8.142;2024-03-17T00:07:38;7.60;;;3.27;;
66559;SDS011;53413;49.878;8.142;2024-03-17T00:10:03;8.52;;;3.00;;
66559;SDS011;53413;49.878;8.142;2024-03-17T00:12:29;8.02;;;2.90;;
66559;SDS011;53413;49.878;8.142;2024-03-17T00:14:54;8.60;;;3.40;;
66559;SDS011;53413;49.878;8.142;2024-03-17T00:17:20;7.63;;;3.00;;
66559;SDS011;53413;49.878;8.142;2024-03-17T00:19:46;9.87;;;3.73;;
66559;SDS011;53413;49.878;8.142;2024-03-17T00:22:11;9.80;;;3.20;;
66559;SDS011;53413;49.878;8.142;2024-03-17T00:24:39;8.43;;;3.30;;
66559;SDS011;53413;49.878;8.142;2024-03-17T00:27:05;8.87;;;3.33;;
66559;SDS011;53413;49.878;8.142;2024-03-17T00:29:30;8.40;;;3.78;;
66559;SDS011;53413;49.878;8.142;2024-03-17T00:31:56;9.52;;;3.80;;
66559;SDS011;53413;49.878;8.142;2024-03-17T00:34:22;10.00;;;3.80;;
66559;SDS011;53413;49.878;8.142;2024-03-17T00:36:47;12.10;;;4.60;;
66559;SDS011;53413;49.878;8.142;2024-03-17T00:39:12;10.67;;;4.20;;
66559;SDS011;53413;49.878;8.142;2024-03-17T00:41:39;9.13;;;3.45;;
66559;SDS011;53413;49.878;8.142;2024-03-17T00:44:04;9.07;;;3.37;;
66559;SDS011;53413;49.878;8.142;2024-03-17T00:46:31;7.75;;;3.28;;
66559;SDS011;53413;49.878;8.142;2024-03-17T00:48:58;8.70;;;3.40;;
66559;SDS011;53413;49.878;8.142;2024-03-17T00:51:25;10.73;;;3.47;;
66559;SDS011;53413;49.878;8.142;2024-03-17T00:53:51;8.75;;;3.35;;
66559;SDS011;53413;49.878;8.142;2024-03-17T00:56:16;8.77;;;3.50;;
66559;SDS011;53413;49.878;8.142;2024-03-17T00:58:41;9.10;;;3.57;;
66559;SDS011;53413;49.878;8.142;2024-03-17T01:01:07;9.00;;;3.50;;
66559;SDS011;53413;49.878;8.142;2024-03-17T01:03:33;10.45;;;3.88;;
66559;SDS011;53413;49.878;8.142;2024-03-17T01:05:58;9.73;;;3.50;;
66559;SDS011;53413;49.878;8.142;2024-03-17T01:08:23;10.13;;;3.67;;
66559;SDS011;53413;49.878;8.142;2024-03-17T01:10:49;7.40;;;3.23;;
66559;SDS011;53413;49.878;8.142;2024-03-17T01:13:15;9.57;;;3.50;;
66559;SDS011;53413;49.878;8.142;2024-03-17T01:15:41;8.10;;;3.17;;
66559;SDS011;53413;49.878;8.142;2024-03-17T01:18:07;8.15;;;2.78;;
66559;SDS011;53413;49.878;8.142;2024-03-17T01:20:32;8.18;;;3.00;;
66559;SDS011;53413;49.878;8.142;2024-03-17T01:22:59;9.32;;;2.90;;
66559;SDS011;53413;49.878;8.142;2024-03-17T01:25:25;8.50;;;2.70;;
66559;SDS011;53413;49.878;8.142;2024-03-17T01:27:51;7.25;;;2.80;;
66559;SDS011;53413;49.878;8.142;2024-03-17T01:30:17;8.25;;;2.75;;
66559;SDS011;53413;49.878;8.142;2024-03-17T01:32:42;8.07;;;2.80;;
66559;SDS011;53413;49.878;8.142;2024-03-17T01:35:07;9.03;;;3.00;;
66559;SDS011;53413;49.878;8.142;2024-03-17T01:37:33;9.90;;;3.17;;
66559;SDS011;53413;49.878;8.142;2024-03-17T01:39:59;9.95;;;3.47;;
66559;SDS011;53413;49.878;8.142;2024-03-17T01:42:24;9.87;;;2.93;;
66559;SDS011;53413;49.878;8.142;2024-03-17T01:44:50;10.27;;;3.58;;
66559;SDS011;53413;49.878;8.142;2024-03-17T01:47:16;9.75;;;3.35;;
66559;SDS011;53413;49.878;8.142;2024-03-17T01:49:43;11.02;;;3.60;;
66559;SDS011;53413;49.878;8.142;2024-03-17T01:52:10;10.43;;;3.78;;
66559;SDS011;53413;49.878;8.142;2024-03-17T01:54:36;11.50;;;3.37;;
66559;SDS011;53413;49.878;8.142;2024-03-17T01:57:03;8.60;;;3.30;;
66559;SDS011;53413;49.878;8.142;2024-03-17T01:59:28;10.52;;;3.60;;
66559;SDS011;53413;49.878;8.142;2024-03-17T02:01:54;10.07;;;3.33;;
66559;SDS011;53413;49.878;8.142;2024-03-17T02:04:19;10.03;;;3.37;;
66559;SDS011;53413;49.878;8.142;2024-03-17T02:06:47;11.63;;;3.70;;
66559;SDS011;53413;49.878;8.142;2024-03-17T02:09:12;9.30;;;3.57;;
66559;SDS011;53413;49.878;8.142;2024-03-17T02:11:37;11.68;;;3.78;;
66559;SDS011;53413;49.878;8.142;2024-03-17T02:14:03;9.53;;;3.40;;
66559;SDS011;53413;49.878;8.142;2024-03-17T02:16:28;9.87;;;3.70;;
66559;SDS011;53413;49.878;8.142;2024-03-17T02:18:54;8.93;;;3.43;;
66559;SDS011;53413;49.878;8.142;2024-03-17T02:21:21;9.52;;;3.70;;
66559;SDS011;53413;49.878;8.142;2024-03-17T02:23:48;10.82;;;3.63;;
66559;SDS011;53413;49.878;8.142;2024-03-17T02:26:13;10.37;;;3.77;;
66559;SDS011;53413;49.878;8.142;2024-03-17T02:28:42;9.33;;;3.50;;
66559;SDS011;53413;49.878;8.142;2024-03-17T02:31:09;9.32;;;3.40;;
66559;SDS011;53413;49.878;8.142;2024-03-17T02:33:36;9.25;;;3.33;;
66559;SDS011;53413;49.878;8.142;2024-03-17T02:36:02;11.63;;;3.60;;
66559;SDS011;53413;49.878;8.142;2024-03-17T02:38:35;9.40;;;3.45;;
66559;SDS011;53413;49.878;8.142;2024-03-17T02:41:20;8.80;;;3.22;;
66559;SDS011;53413;49.878;8.142;2024-03-17T02:43:45;10.13;;;3.67;;
66559;SDS011;53413;49.878;8.142;2024-03-17T02:46:12;10.63;;;3.90;;
66559;SDS011;53413;49.878;8.142;2024-03-17T02:48:38;9.77;;;3.70;;
66559;SDS011;53413;49.878;8.142;2024-03-17T02:51:13;11.07;;;3.97;;
66559;SDS011;53413;49.878;8.142;2024-03-17T02:53:40;11.05;;;4.10;;
66559;SDS011;53413;49.878;8.142;2024-03-17T02:56:06;10.60;;;3.95;;
66559;SDS011;53413;49.878;8.142;2024-03-17T02:58:33;10.77;;;3.60;;
66559;SDS011;53413;49.878;8.142;2024-03-17T03:00:59;13.00;;;4.05;;
66559;SDS011;53413;49.878;8.142;2024-03-17T03:03:25;11.03;;;3.90;;
66559;SDS011;53413;49.878;8.142;2024-03-17T03:05:50;10.40;;;3.87;;
66559;SDS011;53413;49.878;8.142;2024-03-17T03:08:17;11.45;;;4.20;;
66559;SDS011;53413;49.878;8.142;2024-03-17T03:10:44;11.00;;;4.00;;
66559;SDS011;53413;49.878;8.142;2024-03-17T03:13:10;11.25;;;4.43;;
66559;SDS011;53413;49.878;8.142;2024-03-17T03:15:36;11.07;;;3.95;;
66559;SDS011;53413;49.878;8.142;2024-03-17T03:18:01;11.37;;;4.13;;
66559;SDS011;53413;49.878;8.142;2024-03-17T03:20:26;11.03;;;4.00;;
66559;SDS011;53413;49.878;8.142;2024-03-17T03:22:53;9.60;;;3.90;;
66559;SDS011;53413;49.878;8.142;2024-03-17T03:25:18;13.90;;;4.63;;
66559;SDS011;53413;49.878;8.142;2024-03-17T03:27:44;11.57;;;4.00;;
66559;SDS011;53413;49.878;8.142;2024-03-17T03:30:09;11.90;;;4.33;;
66559;SDS011;53413;49.878;8.142;2024-03-17T03:32:35;14.05;;;4.90;;
66559;SDS011;53413;49.878;8.142;2024-03-17T03:35:04;10.68;;;4.25;;
66559;SDS011;53413;49.878;8.142;2024-03-17T03:37:30;13.32;;;4.38;;
66559;SDS011;53413;49.878;8.142;2024-03-17T03:39:55;12.02;;;4.40;;
66559;SDS011;53413;49.878;8.142;2024-03-17T03:42:21;12.80;;;4.38;;
66559;SDS011;53413;49.878;8.142;2024-03-17T03:44:48;11.30;;;4.28;;
66559;SDS011;53413;49.878;8.142;2024-03-17T03:47:14;13.13;;;4.50;;
66559;SDS011;53413;49.878;8.142;2024-03-17T03:49:39;11.13;;;4.20;;
66559;SDS011;53413;49.878;8.142;2024-03-17T03:52:05;13.10;;;4.57;;
66559;SDS011;53413;49.878;8.142;2024-03-17T03:54:30;12.20;;;4.60;;
66559;SDS011;53413;49.878;8.142;2024-03-17T03:56:56;11.18;;;4.07;;
66559;SDS011;53413;49.878;8.142;2024-03-17T03:59:21;11.43;;;4.25;;
66559;SDS011;53413;49.878;8.142;2024-03-17T04:01:47;12.67;;;4.50;;
66559;SDS011;53413;49.878;8.142;2024-03-17T04:04:15;12.80;;;4.50;;
66559;SDS011;53413;49.878;8.142;2024-03-17T04:06:41;12.57;;;4.37;;
66559;SDS011;53413;49.878;8.142;2024-03-17T04:09:06;11.27;;;4.33;;
66559;SDS011;53413;49.878;8.142;2024-03-17T04:11:32;13.40;;;4.93;;
66559;SDS011;53413;49.878;8.142;2024-03-17T04:13:59;12.65;;;4.32;;
66559;SDS011;53413;49.878;8.142;2024-03-17T04:16:25;13.40;;;4.30;;
66559;SDS011;53413;49.878;8.142;2024-03-17T04:18:51;12.10;;;4.40;;
66559;SDS011;53413;49.878;8.142;2024-03-17T04:21:17;10.50;;;4.47;;
66559;SDS011;53413;49.878;8.142;2024-03-17T04:23:42;12.43;;;4.47;;
66559;SDS011;53413;49.878;8.142;2024-03-17T04:26:09;13.43;;;4.30;;
66559;SDS011;53413;49.878;8.142;2024-03-17T04:28:35;12.63;;;4.38;;
66559;SDS011;53413;49.878;8.142;2024-03-17T04:31:04;11.73;;;4.13;;
66559;SDS011;53413;49.878;8.142;2024-03-17T04:33:31;13.05;;;4.20;;
66559;SDS011;53413;49.878;8.142;2024-03-17T04:35:59;11.73;;;4.60;;
66559;SDS011;53413;49.878;8.142;2024-03-17T04:38:25;14.43;;;4.60;;
66559;SDS011;53413;49.878;8.142;2024-03-17T04:40:50;13.65;;;4.60;;
66559;SDS011;53413;49.878;8.142;2024-03-17T04:43:22;15.07;;;5.13;;
66559;SDS011;53413;49.878;8.142;2024-03-17T04:45:47;15.45;;;5.28;;
66559;SDS011;53413;49.878;8.142;2024-03-17T04:48:14;13.57;;;5.17;;
66559;SDS011;53413;49.878;8.142;2024-03-17T04:50:40;14.10;;;4.55;;
66559;SDS011;53413;49.878;8.142;2024-03-17T04:53:05;15.13;;;4.90;;
66559;SDS011;53413;49.878;8.142;2024-03-17T04:55:31;12.60;;;4.83;;
66559;SDS011;53413;49.878;8.142;2024-03-17T04:57:56;13.60;;;4.80;;
66559;SDS011;53413;49.878;8.142;2024-03-17T05:00:21;12.88;;;4.70;;
66559;SDS011;53413;49.878;8.142;2024-03-17T05:02:47;15.38;;;5.00;;
66559;SDS011;53413;49.878;8.142;2024-03-17T05:05:13;12.80;;;5.07;;
66559;SDS011;53413;49.878;8.142;2024-03-17T05:07:38;12.83;;;5.20;;
66559;SDS011;53413;49.878;8.142;2024-03-17T05:10:04;15.63;;;5.20;;
66559;SDS011;53413;49.878;8.142;2024-03-17T05:12:30;12.65;;;4.50;;
66559;SDS011;53413;49.878;8.142;2024-03-17T05:14:56;15.17;;;4.80;;
66559;SDS011;53413;49.878;8.142;2024-03-17T05:17:21;13.33;;;4.87;;
66559;SDS011;53413;49.878;8.142;2024-03-17T05:19:47;13.17;;;4.90;;
66559;SDS011;53413;49.878;8.142;2024-03-17T05:22:12;14.70;;;5.27;;
66559;SDS011;53413;49.878;8.142;2024-03-17T05:24:37;13.63;;;5.10;;
66559;SDS011;53413;49.878;8.142;2024-03-17T05:27:03;15.95;;;5.40;;
66559;SDS011;53413;49.878;8.142;2024-03-17T05:29:28;15.33;;;6.00;;
66559;SDS011;53413;49.878;8.142;2024-03-17T05:31:54;14.13;;;5.57;;
66559;SDS011;53413;49.878;8.142;2024-03-17T05:34:19;14.87;;;6.17;;
66559;SDS011;53413;49.878;8.142;2024-03-17T05:36:44;15.88;;;6.13;;
66559;SDS011;53413;49.878;8.142;2024-03-17T05:39:11;14.60;;;6.03;;
66559;SDS011;53413;49.878;8.142;2024-03-17T05:41:37;15.20;;;6.07;;
66559;SDS011;53413;49.878;8.142;2024-03-17T05:44:02;16.43;;;5.70;;
66559;SDS011;53413;49.878;8.142;2024-03-17T05:46:28;14.83;;;5.57;;
66559;SDS011;53413;49.878;8.142;2024-03-17T05:48:54;14.45;;;5.45;;
66559;SDS011;53413;49.878;8.142;2024-03-17T05:51:20;14.18;;;6.20;;
66559;SDS011;53413;49.878;8.142;2024-03-17T05:53:46;14.32;;;5.97;;
66559;SDS011;53413;49.878;8.142;2024-03-17T05:56:11;16.83;;;5.70;;
66559;SDS011;53413;49.878;8.142;2024-03-17T05:58:37;13.45;;;5.45;;
66559;SDS011;53413;49.878;8.142;2024-03-17T06:01:04;14.93;;;5.75;;
66559;SDS011;53413;49.878;8.142;2024-03-17T06:03:30;16.55;;;5.78;;
66559;SDS011;53413;49.878;8.142;2024-03-17T06:05:58;16.77;;;5.83;;
66559;SDS011;53413;49.878;8.142;2024-03-17T06:08:24;16.25;;;5.90;;
66559;SDS011;53413;49.878;8.142;2024-03-17T06:10:50;14.73;;;5.23;;
66559;SDS011;53413;49.878;8.142;2024-03-17T06:13:15;14.97;;;5.30;;
66559;SDS011;53413;49.878;8.142;2024-03-17T06:15:42;13.85;;;5.13;;
66559;SDS011;53413;49.878;8.142;2024-03-17T06:18:09;14.77;;;5.50;;
66559;SDS011;53413;49.878;8.142;2024-03-17T06:20:42;17.02;;;5.70;;
66559;SDS011;53413;49.878;8.142;2024-03-17T06:23:09;13.70;;;5.53;;
66559;SDS011;53413;49.878;8.142;2024-03-17T06:25:40;15.15;;;5.63;;
66559;SDS011;53413;49.878;8.142;2024-03-17T06:28:06;16.25;;;5.88;;
66559;SDS011;53413;49.878;8.142;2024-03-17T06:30:32;15.50;;;5.88;;
66559;SDS011;53413;49.878;8.142;2024-03-17T06:32:58;17.00;;;5.73;;
66559;SDS011;53413;49.878;8.142;2024-03-17T06:35:23;15.87;;;6.13;;
66559;SDS011;53413;49.878;8.142;2024-03-17T06:37:51;15.30;;;5.63;;
66559;SDS011;53413;49.878;8.142;2024-03-17T06:40:17;15.52;;;6.28;;
66559;SDS011;53413;49.878;8.142;2024-03-17T06:42:43;15.53;;;5.70;;
66559;SDS011;53413;49.878;8.142;2024-03-17T06:45:09;15.68;;;5.70;;
66559;SDS011;53413;49.878;8.142;2024-03-17T06:47:35;15.90;;;6.33;;
66559;SDS011;53413;49.878;8.142;2024-03-17T06:50:04;16.17;;;6.57;;
66559;SDS011;53413;49.878;8.142;2024-03-17T06:52:31;16.88;;;6.40;;
66559;SDS011;53413;49.878;8.142;2024-03-17T06:54:57;17.17;;;6.23;;
66559;SDS011;53413;49.878;8.142;2024-03-17T06:57:23;16.25;;;6.53;;
66559;SDS011;53413;49.878;8.142;2024-03-17T06:59:51;18.05;;;6.25;;
66559;SDS011;53413;49.878;8.142;2024-03-17T07:02:17;18.97;;;6.13;;
66559;SDS011;53413;49.878;8.142;2024-03-17T07:04:46;15.17;;;6.33;;
66559;SDS011;53413;49.878;8.142;2024-03-17T07:07:12;18.30;;;7.03;;
66559;SDS011;53413;49.878;8.142;2024-03-17T07:09:38;16.40;;;6.53;;
66559;SDS011;53413;49.878;8.142;2024-03-17T07:12:05;17.17;;;6.80;;
66559;SDS011;53413;49.878;8.142;2024-03-17T07:14:31;12.32;;;5.75;;
66559;SDS011;53413;49.878;8.142;2024-03-17T07:16:57;14.07;;;6.10;;
66559;SDS011;53413;49.878;8.142;2024-03-17T07:19:22;12.60;;;5.80;;
66559;SDS011;53413;49.878;8.142;2024-03-17T07:21:47;13.10;;;6.10;;
66559;SDS011;53413;49.878;8.142;2024-03-17T07:24:13;13.03;;;5.97;;
66559;SDS011;53413;49.878;8.142;2024-03-17T07:26:38;11.60;;;6.00;;
66559;SDS011;53413;49.878;8.142;2024-03-17T07:29:03;11.83;;;6.13;;
66559;SDS011;53413;49.878;8.142;2024-03-17T07:31:29;11.50;;;6.38;;
66559;SDS011;53413;49.878;8.142;2024-03-17T07:33:54;10.90;;;6.10;;
66559;SDS011;53413;49.878;8.142;2024-03-17T07:36:19;11.10;;;6.33;;
66559;SDS011;53413;49.878;8.142;2024-03-17T07:38:47;12.30;;;6.50;;
66559;SDS011;53413;49.878;8.142;2024-03-17T07:41:12;11.50;;;6.27;;
66559;SDS011;53413;49.878;8.142;2024-03-17T07:43:38;11.77;;;6.23;;
66559;SDS011;53413;49.878;8.142;2024-03-17T07:48:31;10.38;;;6.45;;
66559;SDS011;53413;49.878;8.142;2024-03-17T07:50:58;10.20;;;6.20;;
66559;SDS011;53413;49.878;8.142;2024-03-17T07:53:34;10.77;;;6.50;;
66559;SDS011;53413;49.878;8.142;2024-03-17T07:56:05;10.77;;;6.93;;
66559;SDS011;53413;49.878;8.142;2024-03-17T07:58:34;10.98;;;6.05;;
66559;SDS011;53413;49.878;8.142;2024-03-17T08:01:01;10.18;;;6.20;;
66559;SDS011;53413;49.878;8.142;2024-03-17T08:03:28;11.73;;;6.73;;
66559;SDS011;53413;49.878;8.142;2024-03-17T08:05:54;9.82;;;6.20;;
66559;SDS011;53413;49.878;8.142;2024-03-17T08:08:20;11.40;;;6.68;;
66559;SDS011;53413;49.878;8.142;2024-03-17T08:10:46;9.50;;;5.90;;
66559;SDS011;53413;49.878;8.142;2024-03-17T08:13:15;10.02;;;6.30;;
66559;SDS011;53413;49.878;8.142;2024-03-17T08:15:41;10.45;;;6.03;;
66559;SDS011;53413;49.878;8.142;2024-03-17T08:18:13;9.52;;;6.07;;
66559;SDS011;53413;49.878;8.142;2024-03-17T08:20:39;10.60;;;5.85;;
66559;SDS011;53413;49.878;8.142;2024-03-17T08:23:05;9.30;;;5.80;;
66559;SDS011;53413;49.878;8.142;2024-03-17T08:25:32;10.05;;;5.72;;
66559;SDS011;53413;49.878;8.142;2024-03-17T08:27:58;9.30;;;5.70;;
66559;SDS011;53413;49.878;8.142;2024-03-17T08:30:23;9.17;;;6.10;;
66559;SDS011;53413;49.878;8.142;2024-03-17T08:32:49;10.30;;;5.80;;
66559;SDS011;53413;49.878;8.142;2024-03-17T08:35:14;11.13;;;5.83;;
66559;SDS011;53413;49.878;8.142;2024-03-17T08:37:40;9.98;;;5.93;;
66559;SDS011;53413;49.878;8.142;2024-03-17T08:40:05;10.47;;;5.57;;
66559;SDS011;53413;49.878;8.142;2024-03-17T08:42:31;9.55;;;5.40;;
66559;SDS011;53413;49.878;8.142;2024-03-17T08:44:57;9.97;;;5.57;;
66559;SDS011;53413;49.878;8.142;2024-03-17T08:47:22;10.05;;;5.47;;
66559;SDS011;53413;49.878;8.142;2024-03-17T08:49:50;11.23;;;6.00;;
66559;SDS011;53413;49.878;8.142;2024-03-17T08:52:16;10.90;;;6.28;;
66559;SDS011;53413;49.878;8.142;2024-03-17T08:54:41;11.35;;;5.97;;
66559;SDS011;53413;49.878;8.142;2024-03-17T08:57:10;10.57;;;6.10;;
66559;SDS011;53413;49.878;8.142;2024-03-17T08:59:36;10.10;;;5.67;;
66559;SDS011;53413;49.878;8.142;2024-03-17T09:02:02;11.18;;;5.50;;
66559;SDS011;53413;49.878;8.142;2024-03-17T09:04:28;10.63;;;5.55;;
66559;SDS011;53413;49.878;8.142;2024-03-17T09:06:54;9.82;;;6.10;;
66559;SDS011;53413;49.878;8.142;2024-03-17T09:09:21;10.73;;;5.82;;
66559;SDS011;53413;49.878;8.142;2024-03-17T09:11:46;10.30;;;5.67;;
66559;SDS011;53413;49.878;8.142;2024-03-17T09:14:12;10.70;;;5.77;;
66559;SDS011;53413;49.878;8.142;2024-03-17T09:16:37;10.38;;;5.40;;
66559;SDS011;53413;49.878;8.142;2024-03-17T09:19:02;9.30;;;5.00;;
66559;SDS011;53413;49.878;8.142;2024-03-17T09:21:28;9.73;;;4.70;;
66559;SDS011;53413;49.878;8.142;2024-03-17T09:23:53;10.30;;;5.70;;
66559;SDS011;53413;49.878;8.142;2024-03-17T09:26:18;9.90;;;5.40;;
66559;SDS011;53413;49.878;8.142;2024-03-17T09:28:44;9.73;;;5.37;;
66559;SDS011;53413;49.878;8.142;2024-03-17T09:31:10;9.63;;;5.20;;
66559;SDS011;53413;49.878;8.142;2024-03-17T09:33:36;9.77;;;5.20;;
66559;SDS011;53413;49.878;8.142;2024-03-17T09:36:02;10.10;;;5.30;;
66559;SDS011;53413;49.878;8.142;2024-03-17T09:38:31;9.23;;;5.55;;
66559;SDS011;53413;49.878;8.142;2024-03-17T09:40:56;9.83;;;5.50;;
66559;SDS011;53413;49.878;8.142;2024-03-17T09:43:23;8.73;;;5.38;;
66559;SDS011;53413;49.878;8.142;2024-03-17T09:45:50;11.07;;;5.10;;
66559;SDS011;53413;49.878;8.142;2024-03-17T09:48:20;9.02;;;5.10;;
66559;SDS011;53413;49.878;8.142;2024-03-17T09:50:49;9.13;;;5.70;;
66559;SDS011;53413;49.878;8.142;2024-03-17T09:53:17;9.35;;;5.25;;
66559;SDS011;53413;49.878;8.142;2024-03-17T09:55:47;8.65;;;5.20;;
66559;SDS011;53413;49.878;8.142;2024-03-17T09:58:16;9.80;;;5.70;;
66559;SDS011;53413;49.878;8.142;2024-03-17T10:00:42;9.13;;;5.53;;
66559;SDS011;53413;49.878;8.142;2024-03-17T10:03:08;9.45;;;5.45;;
66559;SDS011;53413;49.878;8.142;2024-03-17T10:05:34;10.93;;;5.83;;
66559;SDS011;53413;49.878;8.142;2024-03-17T10:07:59;11.10;;;5.77;;
66559;SDS011;53413;49.878;8.142;2024-03-17T10:10:25;9.67;;;5.80;;
66559;SDS011;53413;49.878;8.142;2024-03-17T10:12:50;10.70;;;5.63;;
66559;SDS011;53413;49.878;8.142;2024-03-17T10:15:17;10.77;;;5.85;;
66559;SDS011;53413;49.878;8.142;2024-03-17T10:17:43;11.90;;;6.10;;
66559;SDS011;53413;49.878;8.142;2024-03-17T10:23:01;11.43;;;5.97;;
66559;SDS011;53413;49.878;8.142;2024-03-17T10:25:27;10.82;;;5.60;;
66559;SDS011;53413;49.878;8.142;2024-03-17T10:27:54;11.40;;;5.93;;
66559;SDS011;53413;49.878;8.142;2024-03-17T10:30:22;10.65;;;5.93;;
66559;SDS011;53413;49.878;8.142;2024-03-17T10:32:58;10.98;;;5.78;;
66559;SDS011;53413;49.878;8.142;2024-03-17T10:35:28;11.75;;;5.78;;
66559;SDS011;53413;49.878;8.142;2024-03-17T10:37:56;10.77;;;6.05;;
66559;SDS011;53413;49.878;8.142;2024-03-17T10:40:23;11.80;;;6.20;;
66559;SDS011;53413;49.878;8.142;2024-03-17T10:42:50;11.43;;;5.65;;
66559;SDS011;53413;49.878;8.142;2024-03-17T10:45:15;9.55;;;5.60;;
66559;SDS011;53413;49.878;8.142;2024-03-17T10:47:42;10.23;;;5.30;;
66559;SDS011;53413;49.878;8.142;2024-03-17T10:50:16;11.15;;;5.80;;
66559;SDS011;53413;49.878;8.142;2024-03-17T10:52:46;9.70;;;5.57;;
66559;SDS011;53413;49.878;8.142;2024-03-17T10:55:40;10.57;;;5.50;;
66559;SDS011;53413;49.878;8.142;2024-03-17T11:00:53;10.98;;;5.50;;
66559;SDS011;53413;49.878;8.142;2024-03-17T11:03:21;11.02;;;5.80;;
66559;SDS011;53413;49.878;8.142;2024-03-17T11:05:47;10.70;;;5.60;;
66559;SDS011;53413;49.878;8.142;2024-03-17T11:08:15;11.40;;;5.72;;
66559;SDS011;53413;49.878;8.142;2024-03-17T11:10:48;12.48;;;6.00;;
66559;SDS011;53413;49.878;8.142;2024-03-17T11:15:50;11.13;;;5.82;;
66559;SDS011;53413;49.878;8.142;2024-03-17T11:20:56;11.07;;;5.63;;
66559;SDS011;53413;49.878;8.142;2024-03-17T11:23:41;11.20;;;5.53;;
66559;SDS011;53413;49.878;8.142;2024-03-17T11:26:08;12.37;;;5.83;;
66559;SDS011;53413;49.878;8.142;2024-03-17T11:31:33;11.85;;;6.10;;
66559;SDS011;53413;49.878;8.142;2024-03-17T11:34:06;12.80;;;5.97;;
66559;SDS011;53413;49.878;8.142;2024-03-17T11:36:51;13.00;;;6.07;;
66559;SDS011;53413;49.878;8.142;2024-03-17T11:39:16;11.97;;;6.17;;
66559;SDS011;53413;49.878;8.142;2024-03-17T11:41:52;12.48;;;5.88;;
66559;SDS011;53413;49.878;8.142;2024-03-17T11:46:55;11.38;;;6.40;;
66559;SDS011;53413;49.878;8.142;2024-03-17T11:51:56;12.73;;;6.10;;
66559;SDS011;53413;49.878;8.142;2024-03-17T11:54:23;13.27;;;5.97;;
66559;SDS011;53413;49.878;8.142;2024-03-17T11:56:52;12.60;;;6.30;;
66559;SDS011;53413;49.878;8.142;2024-03-17T11:59:19;12.65;;;6.07;;
66559;SDS011;53413;49.878;8.142;2024-03-17T12:01:48;12.93;;;6.50;;
66559;SDS011;53413;49.878;8.142;2024-03-17T12:04:15;14.35;;;6.30;;
66559;SDS011;53413;49.878;8.142;2024-03-17T12:06:59;10.95;;;5.75;;
66559;SDS011;53413;49.878;8.142;2024-03-17T12:09:25;13.40;;;6.00;;
66559;SDS011;53413;49.878;8.142;2024-03-17T12:11:59;12.55;;;6.15;;
66559;SDS011;53413;49.878;8.142;2024-03-17T12:14:32;11.82;;;5.88;;
66559;SDS011;53413;49.878;8.142;2024-03-17T12:16:59;12.65;;;5.95;;
66559;SDS011;53413;49.878;8.142;2024-03-17T12:19:29;12.38;;;5.70;;
66559;SDS011;53413;49.878;8.142;2024-03-17T12:21:56;13.33;;;6.20;;
66559;SDS011;53413;49.878;8.142;2024-03-17T12:24:23;11.82;;;5.53;;
66559;SDS011;53413;49.878;8.142;2024-03-17T12:26:50;12.68;;;5.90;;
66559;SDS011;53413;49.878;8.142;2024-03-17T12:31:55;13.27;;;6.15;;
66559;SDS011;53413;49.878;8.142;2024-03-17T12:34:25;13.57;;;6.03;;
66559;SDS011;53413;49.878;8.142;2024-03-17T12:36:51;12.68;;;6.10;;
66559;SDS011;53413;49.878;8.142;2024-03-17T12:39:18;14.23;;;6.28;;
66559;SDS011;53413;49.878;8.142;2024-03-17T12:41:46;13.77;;;6.80;;
66559;SDS011;53413;49.878;8.142;2024-03-17T12:44:29;13.20;;;6.25;;
66559;SDS011;53413;49.878;8.142;2024-03-17T12:46:56;13.03;;;6.13;;
66559;SDS011;53413;49.878;8.142;2024-03-17T12:49:28;14.60;;;6.38;;
66559;SDS011;53413;49.878;8.142;2024-03-17T12:51:54;13.98;;;6.30;;
66559;SDS011;53413;49.878;8.142;2024-03-17T12:54:21;12.80;;;6.20;;
66559;SDS011;53413;49.878;8.142;2024-03-17T12:56:51;12.07;;;5.95;;
66559;SDS011;53413;49.878;8.142;2024-03-17T12:59:47;13.00;;;5.87;;
66559;SDS011;53413;49.878;8.142;2024-03-17T13:02:31;12.18;;;5.72;;
66559;SDS011;53413;49.878;8.142;2024-03-17T13:05:06;12.13;;;5.70;;
66559;SDS011;53413;49.878;8.142;2024-03-17T13:07:32;12.77;;;6.00;;
66559;SDS011;53413;49.878;8.142;2024-03-17T13:09:58;14.30;;;6.10;;
66559;SDS011;53413;49.878;8.142;2024-03-17T13:12:23;14.83;;;6.00;;
66559;SDS011;53413;49.878;8.142;2024-03-17T13:14:48;12.53;;;6.27;;
66559;SDS011;53413;49.878;8.142;2024-03-17T13:17:14;13.17;;;6.43;;
66559;SDS011;53413;49.878;8.142;2024-03-17T13:19:46;14.27;;;6.68;;
66559;SDS011;53413;49.878;8.142;2024-03-17T13:22:12;13.93;;;6.90;;
66559;SDS011;53413;49.878;8.142;2024-03-17T13:24:38;14.27;;;6.43;;
66559;SDS011;53413;49.878;8.142;2024-03-17T13:27:04;15.88;;;7.07;;
66559;SDS011;53413;49.878;8.142;2024-03-17T13:29:31;14.00;;;6.13;;
66559;SDS011;53413;49.878;8.142;2024-03-17T13:32:03;13.95;;;6.93;;
66559;SDS011;53413;49.878;8.142;2024-03-17T13:34:29;17.77;;;7.30;;
66559;SDS011;53413;49.878;8.142;2024-03-17T13:36:54;14.60;;;6.97;;
66559;SDS011;53413;49.878;8.142;2024-03-17T13:39:20;15.65;;;7.07;;
66559;SDS011;53413;49.878;8.142;2024-03-17T13:41:47;13.25;;;6.18;;
66559;SDS011;53413;49.878;8.142;2024-03-17T13:44:14;14.50;;;6.78;;
66559;SDS011;53413;49.878;8.142;2024-03-17T13:46:39;14.63;;;6.93;;
66559;SDS011;53413;49.878;8.142;2024-03-17T13:49:09;16.38;;;7.35;;
66559;SDS011;53413;49.878;8.142;2024-03-17T13:54:10;15.13;;;6.78;;
66559;SDS011;53413;49.878;8.142;2024-03-17T13:56:35;16.70;;;7.03;;
66559;SDS011;53413;49.878;8.142;2024-03-17T13:59:00;15.17;;;6.80;;
66559;SDS011;53413;49.878;8.142;2024-03-17T14:01:26;15.60;;;7.00;;
66559;SDS011;53413;49.878;8.142;2024-03-17T14:03:51;15.83;;;7.20;;
66559;SDS011;53413;49.878;8.142;2024-03-17T14:06:17;15.50;;;6.68;;
66559;SDS011;53413;49.878;8.142;2024-03-17T14:08:44;13.68;;;6.18;;
66559;SDS011;53413;49.878;8.142;2024-03-17T14:11:09;13.07;;;6.00;;
66559;SDS011;53413;49.878;8.142;2024-03-17T14:13:35;14.70;;;6.17;;
66559;SDS011;53413;49.878;8.142;2024-03-17T14:16:00;13.63;;;5.97;;
66559;SDS011;53413;49.878;8.142;2024-03-17T14:18:26;14.10;;;6.03;;
66559;SDS011;53413;49.878;8.142;2024-03-17T14:20:51;13.40;;;5.97;;
66559;SDS011;53413;49.878;8.142;2024-03-17T14:23:17;14.30;;;6.03;;
66559;SDS011;53413;49.878;8.142;2024-03-17T14:25:42;12.52;;;6.07;;
66559;SDS011;53413;49.878;8.142;2024-03-17T14:28:07;12.82;;;5.72;;
66559;SDS011;53413;49.878;8.142;2024-03-17T14:30:33;14.07;;;6.43;;
66559;SDS011;53413;49.878;8.142;2024-03-17T14:32:58;12.33;;;5.27;;
66559;SDS011;53413;49.878;8.142;2024-03-17T14:35:24;13.43;;;5.93;;
66559;SDS011;53413;49.878;8.142;2024-03-17T14:37:51;12.15;;;5.78;;
66559;SDS011;53413;49.878;8.142;2024-03-17T14:40:18;13.98;;;5.72;;
66559;SDS011;53413;49.878;8.142;2024-03-17T14:42:53;12.43;;;5.80;;
66559;SDS011;53413;49.878;8.142;2024-03-17T14:45:22;20.92;;;7.35;;
66559;SDS011;53413;49.878;8.142;2024-03-17T14:47:50;18.27;;;7.70;;
66559;SDS011;53413;49.878;8.142;2024-03-17T14:50:17;17.52;;;7.78;;
66559;SDS011;53413;49.878;8.142;2024-03-17T14:52:42;13.23;;;6.07;;
66559;SDS011;53413;49.878;8.142;2024-03-17T14:55:09;13.85;;;6.30;;
66559;SDS011;53413;49.878;8.142;2024-03-17T14:57:35;13.35;;;5.85;;
66559;SDS011;53413;49.878;8.142;2024-03-17T15:00:03;14.40;;;6.25;;
66559;SDS011;53413;49.878;8.142;2024-03-17T15:02:38;13.32;;;6.22;;